sensor_id;sensor_type;location;lat;lon;timestamp;pressure;altitude;pressure_sealevel;temperature;humidity
72157;BME280;60035;52.122;5.406;2023-05-25T00:01:35;102796.13;;;11.31;85.10
72157;BME280;60035;52.122;5.406;2023-05-25T00:04:02;102797.81;;;11.31;85.25
72157;BME280;60035;52.122;5.406;2023-05-25T00:06:31;102793.56;;;11.27;85.39
72157;BME280;60035;52.122;5.406;2023-05-25T00:08:57;102795.28;;;11.23;85.81
72157;BME280;60035;52.122;5.406;2023-05-25T00:11:24;102791.84;;;11.21;86.29
72157;BME280;60035;52.122;5.406;2023-05-25T00:13:52;102793.56;;;11.19;86.60
72157;BME280;60035;52.122;5.406;2023-05-25T00:16:19;102796.13;;;11.19;86.53
72157;BME280;60035;52.122;5.406;2023-05-25T00:18:46;102791.00;;;11.14;86.65
72157;BME280;60035;52.122;5.406;2023-05-25T00:21:14;102796.13;;;11.10;86.96
72157;BME280;60035;52.122;5.406;2023-05-25T00:23:41;102794.41;;;11.06;87.06
72157;BME280;60035;52.122;5.406;2023-05-25T00:26:08;102802.97;;;11.00;86.99
72157;BME280;60035;52.122;5.406;2023-05-25T00:28:35;102807.22;;;10.95;87.21
72157;BME280;60035;52.122;5.406;2023-05-25T00:31:01;102802.94;;;10.94;87.20
72157;BME280;60035;52.122;5.406;2023-05-25T00:33:28;102812.34;;;10.86;88.07
72157;BME280;60035;52.122;5.406;2023-05-25T00:35:55;102808.91;;;10.73;88.71
72157;BME280;60035;52.122;5.406;2023-05-25T00:38:22;102819.16;;;10.66;89.38
72157;BME280;60035;52.122;5.406;2023-05-25T00:40:53;102820.88;;;10.61;89.49
72157;BME280;60035;52.122;5.406;2023-05-25T00:43:20;102819.13;;;10.48;90.15
72157;BME280;60035;52.122;5.406;2023-05-25T00:45:49;102821.66;;;10.45;91.14
72157;BME280;60035;52.122;5.406;2023-05-25T00:48:17;102820.78;;;10.38;90.66
72157;BME280;60035;52.122;5.406;2023-05-25T00:50:44;102815.63;;;10.33;90.69
72157;BME280;60035;52.122;5.406;2023-05-25T00:53:12;102819.88;;;10.31;90.55
72157;BME280;60035;52.122;5.406;2023-05-25T00:55:52;102821.56;;;10.28;90.46
72157;BME280;60035;52.122;5.406;2023-05-25T00:58:20;102822.41;;;10.19;90.90
72157;BME280;60035;52.122;5.406;2023-05-25T01:00:50;102814.69;;;10.10;90.96
72157;BME280;60035;52.122;5.406;2023-05-25T01:03:20;102824.03;;;10.05;90.83
72157;BME280;60035;52.122;5.406;2023-05-25T01:05:54;102818.88;;;9.98;90.71
72157;BME280;60035;52.122;5.406;2023-05-25T01:08:23;102824.84;;;9.91;90.83
72157;BME280;60035;52.122;5.406;2023-05-25T01:10:51;102823.06;;;9.84;91.10
72157;BME280;60035;52.122;5.406;2023-05-25T01:13:19;102830.75;;;9.82;91.14
72157;BME280;60035;52.122;5.406;2023-05-25T01:15:47;102826.44;;;9.77;91.62
72157;BME280;60035;52.122;5.406;2023-05-25T01:18:14;102828.13;;;9.70;92.12
72157;BME280;60035;52.122;5.406;2023-05-25T01:20:52;102829.78;;;9.66;93.01
72157;BME280;60035;52.122;5.406;2023-05-25T01:23:25;102830.63;;;9.65;93.38
72157;BME280;60035;52.122;5.406;2023-05-25T01:25:58;102841.75;;;9.64;94.48
72157;BME280;60035;52.122;5.406;2023-05-25T01:28:31;102834.06;;;9.64;95.63
72157;BME280;60035;52.122;5.406;2023-05-25T01:31:01;102837.50;;;9.71;95.98
72157;BME280;60035;52.122;5.406;2023-05-25T01:33:29;102834.13;;;9.75;95.63
72157;BME280;60035;52.122;5.406;2023-05-25T01:35:57;102842.59;;;9.68;96.03
72157;BME280;60035;52.122;5.406;2023-05-25T01:38:25;102842.56;;;9.63;96.55
72157;BME280;60035;52.122;5.406;2023-05-25T01:40:51;102833.19;;;9.61;96.98
72157;BME280;60035;52.122;5.406;2023-05-25T01:43:18;102834.91;;;9.63;96.31
72157;BME280;60035;52.122;5.406;2023-05-25T01:45:46;102836.56;;;9.58;96.35
72157;BME280;60035;52.122;5.406;2023-05-25T01:48:21;102832.22;;;9.49;95.45
72157;BME280;60035;52.122;5.406;2023-05-25T01:50:57;102844.06;;;9.35;95.65
72157;BME280;60035;52.122;5.406;2023-05-25T01:53:35;102849.06;;;9.23;96.07
72157;BME280;60035;52.122;5.406;2023-05-25T01:56:05;102851.56;;;9.13;96.17
72157;BME280;60035;52.122;5.406;2023-05-25T01:58:44;102851.47;;;9.04;96.45
72157;BME280;60035;52.122;5.406;2023-05-25T02:01:13;102855.66;;;8.99;96.72
72157;BME280;60035;52.122;5.406;2023-05-25T02:03:41;102860.72;;;8.93;96.77
72157;BME280;60035;52.122;5.406;2023-05-25T02:06:08;102860.78;;;8.97;97.35
72157;BME280;60035;52.122;5.406;2023-05-25T02:08:34;102853.13;;;8.99;96.86
72157;BME280;60035;52.122;5.406;2023-05-25T02:11:01;102855.59;;;8.93;97.06
72157;BME280;60035;52.122;5.406;2023-05-25T02:13:28;102849.63;;;8.91;96.84
72157;BME280;60035;52.122;5.406;2023-05-25T02:15:55;102852.22;;;8.92;97.16
72157;BME280;60035;52.122;5.406;2023-05-25T02:18:22;102855.66;;;8.94;96.75
72157;BME280;60035;52.122;5.406;2023-05-25T02:20:49;102851.31;;;8.89;96.73
72157;BME280;60035;52.122;5.406;2023-05-25T02:23:15;102849.56;;;8.86;96.61
72157;BME280;60035;52.122;5.406;2023-05-25T02:25:44;102849.56;;;8.86;96.27
72157;BME280;60035;52.122;5.406;2023-05-25T02:28:11;102846.19;;;8.87;96.28
72157;BME280;60035;52.122;5.406;2023-05-25T02:30:38;102852.97;;;8.83;96.59
72157;BME280;60035;52.122;5.406;2023-05-25T02:33:05;102860.56;;;8.77;96.41
72157;BME280;60035;52.122;5.406;2023-05-25T02:35:31;102851.16;;;8.73;96.62
72157;BME280;60035;52.122;5.406;2023-05-25T02:37:58;102863.88;;;8.70;97.19
72157;BME280;60035;52.122;5.406;2023-05-25T02:40:25;102863.03;;;8.70;97.13
72157;BME280;60035;52.122;5.406;2023-05-25T02:42:52;102863.84;;;8.65;97.62
72157;BME280;60035;52.122;5.406;2023-05-25T02:45:18;102860.41;;;8.63;97.66
72157;BME280;60035;52.122;5.406;2023-05-25T02:47:45;102856.13;;;8.62;97.82
72157;BME280;60035;52.122;5.406;2023-05-25T02:50:12;102859.44;;;8.52;97.43
72157;BME280;60035;52.122;5.406;2023-05-25T02:52:38;102866.22;;;8.52;97.96
72157;BME280;60035;52.122;5.406;2023-05-25T02:55:06;102863.75;;;8.55;97.56
72157;BME280;60035;52.122;5.406;2023-05-25T02:57:35;102868.78;;;8.52;97.49
72157;BME280;60035;52.122;5.406;2023-05-25T03:00:05;102861.88;;;8.44;97.44
72157;BME280;60035;52.122;5.406;2023-05-25T03:02:32;102861.88;;;8.44;97.60
72157;BME280;60035;52.122;5.406;2023-05-25T03:05:00;102872.13;;;8.46;97.47
72157;BME280;60035;52.122;5.406;2023-05-25T03:07:30;102867.78;;;8.40;97.35
72157;BME280;60035;52.122;5.406;2023-05-25T03:09:57;102861.78;;;8.38;97.59
72157;BME280;60035;52.122;5.406;2023-05-25T03:12:24;102869.44;;;8.38;97.23
72157;BME280;60035;52.122;5.406;2023-05-25T03:14:51;102873.63;;;8.31;97.12
72157;BME280;60035;52.122;5.406;2023-05-25T03:17:18;102871.00;;;8.27;97.65
72157;BME280;60035;52.122;5.406;2023-05-25T03:19:44;102886.28;;;8.24;98.04
72157;BME280;60035;52.122;5.406;2023-05-25T03:22:11;102881.16;;;8.24;97.94
72157;BME280;60035;52.122;5.406;2023-05-25T03:24:38;102884.59;;;8.24;98.16
72157;BME280;60035;52.122;5.406;2023-05-25T03:27:07;102885.34;;;8.18;98.34
72157;BME280;60035;52.122;5.406;2023-05-25T03:29:34;102885.31;;;8.15;98.88
72157;BME280;60035;52.122;5.406;2023-05-25T03:32:00;102883.59;;;8.13;99.20
72157;BME280;60035;52.122;5.406;2023-05-25T03:34:28;102886.97;;;8.12;99.36
72157;BME280;60035;52.122;5.406;2023-05-25T03:36:55;102886.94;;;8.10;99.94
72157;BME280;60035;52.122;5.406;2023-05-25T03:39:21;102887.84;;;8.14;100.00
72157;BME280;60035;52.122;5.406;2023-05-25T03:41:48;102891.34;;;8.19;100.00
72157;BME280;60035;52.122;5.406;2023-05-25T03:44:15;102881.88;;;8.13;99.92
72157;BME280;60035;52.122;5.406;2023-05-25T03:46:41;102878.34;;;8.02;100.00
72157;BME280;60035;52.122;5.406;2023-05-25T03:49:08;102879.94;;;7.94;100.00
72157;BME280;60035;52.122;5.406;2023-05-25T03:51:40;102879.94;;;7.94;100.00
72157;BME280;60035;52.122;5.406;2023-05-25T03:54:06;102886.81;;;8.01;100.00
72157;BME280;60035;52.122;5.406;2023-05-25T03:56:33;102881.72;;;8.03;100.00
72157;BME280;60035;52.122;5.406;2023-05-25T03:58:59;102886.03;;;8.07;100.00
72157;BME280;60035;52.122;5.406;2023-05-25T04:01:26;102882.63;;;8.03;99.49
72157;BME280;60035;52.122;5.406;2023-05-25T04:03:55;102883.38;;;7.99;99.60
72157;BME280;60035;52.122;5.406;2023-05-25T04:06:23;102893.63;;;8.00;99.63
72157;BME280;60035;52.122;5.406;2023-05-25T04:08:55;102890.22;;;8.01;99.35
72157;BME280;60035;52.122;5.406;2023-05-25T04:11:23;102889.38;;;8.01;99.69
72157;BME280;60035;52.122;5.406;2023-05-25T04:13:50;102887.63;;;7.98;99.78
72157;BME280;60035;52.122;5.406;2023-05-25T04:16:17;102889.38;;;8.01;99.75
72157;BME280;60035;52.122;5.406;2023-05-25T04:18:44;102900.34;;;7.95;99.73
72157;BME280;60035;52.122;5.406;2023-05-25T04:21:10;102895.19;;;7.92;100.00
72157;BME280;60035;52.122;5.406;2023-05-25T04:23:37;102900.28;;;7.92;100.00
72157;BME280;60035;52.122;5.406;2023-05-25T04:26:03;102913.13;;;7.98;100.00
72157;BME280;60035;52.122;5.406;2023-05-25T04:28:31;102914.00;;;7.99;100.00
72157;BME280;60035;52.122;5.406;2023-05-25T04:30:57;102911.53;;;8.05;100.00
72157;BME280;60035;52.122;5.406;2023-05-25T04:33:24;102912.44;;;8.07;100.00
72157;BME280;60035;52.122;5.406;2023-05-25T04:35:55;102912.34;;;8.03;100.00
72157;BME280;60035;52.122;5.406;2023-05-25T04:38:23;102910.75;;;8.09;100.00
72157;BME280;60035;52.122;5.406;2023-05-25T04:40:51;102913.44;;;8.18;100.00
72157;BME280;60035;52.122;5.406;2023-05-25T04:43:22;102917.84;;;8.32;100.00
72157;BME280;60035;52.122;5.406;2023-05-25T04:45:51;102924.75;;;8.36;100.00
72157;BME280;60035;52.122;5.406;2023-05-25T04:48:18;102916.31;;;8.42;100.00
72157;BME280;60035;52.122;5.406;2023-05-25T04:50:45;102927.50;;;8.52;100.00
72157;BME280;60035;52.122;5.406;2023-05-25T04:53:12;102921.69;;;8.62;100.00
72157;BME280;60035;52.122;5.406;2023-05-25T04:55:39;102930.28;;;8.70;100.00
72157;BME280;60035;52.122;5.406;2023-05-25T04:58:05;102934.66;;;8.79;100.00
72157;BME280;60035;52.122;5.406;2023-05-25T05:00:32;102934.78;;;8.88;100.00
72157;BME280;60035;52.122;5.406;2023-05-25T05:02:59;102934.78;;;8.91;100.00
72157;BME280;60035;52.122;5.406;2023-05-25T05:05:26;102933.13;;;8.93;100.00
72157;BME280;60035;52.122;5.406;2023-05-25T05:07:53;102940.91;;;9.04;100.00
72157;BME280;60035;52.122;5.406;2023-05-25T05:10:19;102946.16;;;9.18;100.00
72157;BME280;60035;52.122;5.406;2023-05-25T05:12:46;102949.69;;;9.28;100.00
72157;BME280;60035;52.122;5.406;2023-05-25T05:15:12;102943.84;;;9.41;100.00
72157;BME280;60035;52.122;5.406;2023-05-25T05:17:39;102943.94;;;9.54;100.00
72157;BME280;60035;52.122;5.406;2023-05-25T05:20:06;102936.34;;;9.63;100.00
72157;BME280;60035;52.122;5.406;2023-05-25T05:22:33;102948.38;;;9.73;100.00
72157;BME280;60035;52.122;5.406;2023-05-25T05:25:00;102939.94;;;9.88;100.00
72157;BME280;60035;52.122;5.406;2023-05-25T05:27:27;102939.22;;;10.03;100.00
72157;BME280;60035;52.122;5.406;2023-05-25T05:29:54;102947.84;;;10.19;100.00
72157;BME280;60035;52.122;5.406;2023-05-25T05:32:20;102945.34;;;10.31;100.00
72157;BME280;60035;52.122;5.406;2023-05-25T05:34:47;102949.72;;;10.45;100.00
72157;BME280;60035;52.122;5.406;2023-05-25T05:37:13;102948.06;;;10.58;100.00
72157;BME280;60035;52.122;5.406;2023-05-25T05:39:40;102950.69;;;10.69;100.00
72157;BME280;60035;52.122;5.406;2023-05-25T05:42:06;102949.88;;;10.80;100.00
72157;BME280;60035;52.122;5.406;2023-05-25T05:44:33;102949.06;;;10.92;100.00
72157;BME280;60035;52.122;5.406;2023-05-25T05:47:00;102955.94;;;11.04;100.00
72157;BME280;60035;52.122;5.406;2023-05-25T05:49:28;102951.66;;;11.11;100.00
72157;BME280;60035;52.122;5.406;2023-05-25T05:51:55;102968.78;;;11.20;100.00
72157;BME280;60035;52.122;5.406;2023-05-25T05:54:22;102959.41;;;11.28;100.00
72157;BME280;60035;52.122;5.406;2023-05-25T05:56:49;102961.97;;;11.37;100.00
72157;BME280;60035;52.122;5.406;2023-05-25T05:59:16;102971.41;;;11.47;100.00
72157;BME280;60035;52.122;5.406;2023-05-25T06:01:43;102973.13;;;11.58;100.00
72157;BME280;60035;52.122;5.406;2023-05-25T06:04:10;102979.13;;;11.64;100.00
72157;BME280;60035;52.122;5.406;2023-05-25T06:06:36;102982.53;;;11.74;100.00
72157;BME280;60035;52.122;5.406;2023-05-25T06:09:05;102981.66;;;11.89;100.00
72157;BME280;60035;52.122;5.406;2023-05-25T06:11:33;102985.13;;;12.00;100.00
72157;BME280;60035;52.122;5.406;2023-05-25T06:14:01;102989.41;;;12.03;100.00
72157;BME280;60035;52.122;5.406;2023-05-25T06:16:27;102988.53;;;12.09;100.00
72157;BME280;60035;52.122;5.406;2023-05-25T06:18:54;102997.94;;;12.21;100.00
72157;BME280;60035;52.122;5.406;2023-05-25T06:21:20;102986.81;;;12.29;100.00
72157;BME280;60035;52.122;5.406;2023-05-25T06:23:47;102990.22;;;12.36;100.00
72157;BME280;60035;52.122;5.406;2023-05-25T06:26:14;102990.22;;;12.35;100.00
72157;BME280;60035;52.122;5.406;2023-05-25T06:28:40;102991.91;;;12.34;100.00
72157;BME280;60035;52.122;5.406;2023-05-25T06:31:07;102979.91;;;12.44;100.00
72157;BME280;60035;52.122;5.406;2023-05-25T06:33:34;102995.28;;;12.62;100.00
72157;BME280;60035;52.122;5.406;2023-05-25T06:36:00;102992.63;;;12.76;100.00
72157;BME280;60035;52.122;5.406;2023-05-25T06:38:27;102991.72;;;12.90;100.00
72157;BME280;60035;52.122;5.406;2023-05-25T06:40:53;102990.00;;;12.95;100.00
72157;BME280;60035;52.122;5.406;2023-05-25T06:43:20;102997.66;;;13.03;100.00
72157;BME280;60035;52.122;5.406;2023-05-25T06:45:46;103000.22;;;13.10;99.59
72157;BME280;60035;52.122;5.406;2023-05-25T06:48:13;103001.03;;;13.22;99.04
72157;BME280;60035;52.122;5.406;2023-05-25T06:50:40;102998.34;;;13.34;98.46
72157;BME280;60035;52.122;5.406;2023-05-25T06:53:07;103000.06;;;13.43;97.72
72157;BME280;60035;52.122;5.406;2023-05-25T06:55:36;103005.22;;;13.38;96.93
72157;BME280;60035;52.122;5.406;2023-05-25T06:58:02;103001.78;;;13.41;96.77
72157;BME280;60035;52.122;5.406;2023-05-25T07:00:29;102997.41;;;13.54;96.64
72157;BME280;60035;52.122;5.406;2023-05-25T07:02:56;102997.34;;;13.58;96.30
72157;BME280;60035;52.122;5.406;2023-05-25T07:05:22;103003.28;;;13.70;95.85
72157;BME280;60035;52.122;5.406;2023-05-25T07:07:49;103012.63;;;13.81;95.91
72157;BME280;60035;52.122;5.406;2023-05-25T07:10:16;103010.00;;;13.91;94.94
72157;BME280;60035;52.122;5.406;2023-05-25T07:12:42;103020.22;;;14.00;94.87
72157;BME280;60035;52.122;5.406;2023-05-25T07:15:09;103020.91;;;14.18;93.89
72157;BME280;60035;52.122;5.406;2023-05-25T07:17:36;103019.00;;;14.35;92.41
72157;BME280;60035;52.122;5.406;2023-05-25T07:20:03;103018.81;;;14.52;92.23
72157;BME280;60035;52.122;5.406;2023-05-25T07:22:31;103023.06;;;14.58;91.12
72157;BME280;60035;52.122;5.406;2023-05-25T07:24:58;103020.38;;;14.72;90.88
72157;BME280;60035;52.122;5.406;2023-05-25T07:27:24;103018.41;;;14.91;89.81
72157;BME280;60035;52.122;5.406;2023-05-25T07:29:51;103018.19;;;15.08;89.01
72157;BME280;60035;52.122;5.406;2023-05-25T07:32:18;103017.25;;;15.15;88.42
72157;BME280;60035;52.122;5.406;2023-05-25T07:34:44;103022.19;;;15.29;88.01
72157;BME280;60035;52.122;5.406;2023-05-25T07:37:11;103019.44;;;15.40;86.93
72157;BME280;60035;52.122;5.406;2023-05-25T07:39:37;103023.81;;;15.36;86.56
72157;BME280;60035;52.122;5.406;2023-05-25T07:42:05;103027.22;;;15.38;85.49
72157;BME280;60035;52.122;5.406;2023-05-25T07:44:32;103026.41;;;15.36;85.18
72157;BME280;60035;52.122;5.406;2023-05-25T07:46:59;103026.47;;;15.31;83.92
72157;BME280;60035;52.122;5.406;2023-05-25T07:49:25;103035.88;;;15.36;84.20
72157;BME280;60035;52.122;5.406;2023-05-25T07:51:52;103037.66;;;15.32;83.80
72157;BME280;60035;52.122;5.406;2023-05-25T07:54:18;103041.00;;;15.39;85.07
72157;BME280;60035;52.122;5.406;2023-05-25T07:56:45;103034.00;;;15.44;84.27
72157;BME280;60035;52.122;5.406;2023-05-25T07:59:11;103039.97;;;15.51;84.70
72157;BME280;60035;52.122;5.406;2023-05-25T08:01:38;103047.53;;;15.63;84.49
72157;BME280;60035;52.122;5.406;2023-05-25T08:04:04;103052.56;;;15.71;84.33
72157;BME280;60035;52.122;5.406;2023-05-25T08:06:31;103050.91;;;15.66;83.68
72157;BME280;60035;52.122;5.406;2023-05-25T08:08:58;103054.47;;;15.58;83.83
72157;BME280;60035;52.122;5.406;2023-05-25T08:11:24;103055.22;;;15.66;83.33
72157;BME280;60035;52.122;5.406;2023-05-25T08:13:54;103049.94;;;15.74;83.44
72157;BME280;60035;52.122;5.406;2023-05-25T08:16:21;103054.84;;;15.92;83.72
72157;BME280;60035;52.122;5.406;2023-05-25T08:18:48;103058.25;;;15.94;82.07
72157;BME280;60035;52.122;5.406;2023-05-25T08:21:15;103050.41;;;15.99;81.55
72157;BME280;60035;52.122;5.406;2023-05-25T08:23:41;103056.34;;;16.04;80.59
72157;BME280;60035;52.122;5.406;2023-05-25T08:26:11;103058.81;;;16.12;80.46
72157;BME280;60035;52.122;5.406;2023-05-25T08:28:57;103071.59;;;16.21;79.62
72157;BME280;60035;52.122;5.406;2023-05-25T08:31:24;103067.06;;;16.34;79.06
72157;BME280;60035;52.122;5.406;2023-05-25T08:33:50;103074.69;;;16.42;78.18
72157;BME280;60035;52.122;5.406;2023-05-25T08:36:17;103071.91;;;16.49;78.18
72157;BME280;60035;52.122;5.406;2023-05-25T08:38:44;103070.06;;;16.58;76.87
72157;BME280;60035;52.122;5.406;2023-05-25T08:41:12;103070.78;;;16.66;74.85
72157;BME280;60035;52.122;5.406;2023-05-25T08:43:40;103074.16;;;16.70;74.99
72157;BME280;60035;52.122;5.406;2023-05-25T08:46:07;103071.19;;;16.87;75.84
72157;BME280;60035;52.122;5.406;2023-05-25T08:48:36;103061.44;;;17.03;75.75
72157;BME280;60035;52.122;5.406;2023-05-25T08:51:09;103066.41;;;17.13;74.03
72157;BME280;60035;52.122;5.406;2023-05-25T08:53:38;103066.47;;;17.09;73.07
72157;BME280;60035;52.122;5.406;2023-05-25T08:56:10;103062.78;;;17.21;72.09
72157;BME280;60035;52.122;5.406;2023-05-25T08:58:44;103059.88;;;17.35;71.28
72157;BME280;60035;52.122;5.406;2023-05-25T09:01:13;103061.84;;;17.23;69.95
72157;BME280;60035;52.122;5.406;2023-05-25T09:03:41;103057.03;;;17.06;71.42
72157;BME280;60035;52.122;5.406;2023-05-25T09:06:10;103059.66;;;17.05;71.67
72157;BME280;60035;52.122;5.406;2023-05-25T09:08:37;103060.56;;;17.02;71.20
72157;BME280;60035;52.122;5.406;2023-05-25T09:11:05;103054.78;;;16.91;70.85
72157;BME280;60035;52.122;5.406;2023-05-25T09:13:33;103067.69;;;16.92;71.73
72157;BME280;60035;52.122;5.406;2023-05-25T09:16:01;103071.06;;;16.96;70.39
72157;BME280;60035;52.122;5.406;2023-05-25T09:18:28;103065.88;;;16.96;70.86
72157;BME280;60035;52.122;5.406;2023-05-25T09:20:55;103061.06;;;17.21;69.73
72157;BME280;60035;52.122;5.406;2023-05-25T09:23:22;103058.84;;;17.42;68.77
72157;BME280;60035;52.122;5.406;2023-05-25T09:25:51;103060.22;;;17.58;68.16
72157;BME280;60035;52.122;5.406;2023-05-25T09:28:19;103065.53;;;17.88;67.88
72157;BME280;60035;52.122;5.406;2023-05-25T09:30:51;103055.38;;;18.15;65.09
72157;BME280;60035;52.122;5.406;2023-05-25T09:33:19;103050.53;;;18.36;64.50
72157;BME280;60035;52.122;5.406;2023-05-25T09:35:46;103052.69;;;18.51;63.10
72157;BME280;60035;52.122;5.406;2023-05-25T09:38:16;103052.69;;;18.51;63.23
72157;BME280;60035;52.122;5.406;2023-05-25T09:40:46;103053.13;;;18.67;60.93
72157;BME280;60035;52.122;5.406;2023-05-25T09:43:13;103045.28;;;18.69;59.65
72157;BME280;60035;52.122;5.406;2023-05-25T09:45:58;103042.28;;;18.82;59.51
72157;BME280;60035;52.122;5.406;2023-05-25T09:48:24;103042.06;;;18.92;58.79
72157;BME280;60035;52.122;5.406;2023-05-25T09:50:55;103041.88;;;18.98;60.06
72157;BME280;60035;52.122;5.406;2023-05-25T09:53:22;103054.84;;;18.98;59.65
72157;BME280;60035;52.122;5.406;2023-05-25T09:55:48;103044.91;;;18.81;58.67
72157;BME280;60035;52.122;5.406;2023-05-25T09:58:21;103048.91;;;18.63;59.74
72157;BME280;60035;52.122;5.406;2023-05-25T10:00:52;103058.16;;;18.42;60.09
72157;BME280;60035;52.122;5.406;2023-05-25T10:03:20;103053.31;;;18.28;61.01
72157;BME280;60035;52.122;5.406;2023-05-25T10:05:47;103052.53;;;18.24;60.89
72157;BME280;60035;52.122;5.406;2023-05-25T10:08:16;103053.25;;;18.31;61.21
72157;BME280;60035;52.122;5.406;2023-05-25T10:10:45;103052.22;;;18.37;62.01
72157;BME280;60035;52.122;5.406;2023-05-25T10:13:19;103051.00;;;18.50;62.02
72157;BME280;60035;52.122;5.406;2023-05-25T10:15:47;103053.50;;;18.53;61.16
72157;BME280;60035;52.122;5.406;2023-05-25T10:18:23;103050.16;;;18.50;60.52
72157;BME280;60035;52.122;5.406;2023-05-25T10:21:04;103056.75;;;18.60;59.47
72157;BME280;60035;52.122;5.406;2023-05-25T10:23:37;103062.16;;;18.54;58.12
72157;BME280;60035;52.122;5.406;2023-05-25T10:26:07;103057.22;;;18.44;57.71
72157;BME280;60035;52.122;5.406;2023-05-25T10:28:36;103059.34;;;18.60;58.46
72157;BME280;60035;52.122;5.406;2023-05-25T10:31:04;103065.47;;;18.59;58.35
72157;BME280;60035;52.122;5.406;2023-05-25T10:33:31;103067.41;;;18.51;59.32
72157;BME280;60035;52.122;5.406;2023-05-25T10:36:07;103065.72;;;18.50;59.60
72157;BME280;60035;52.122;5.406;2023-05-25T10:38:38;103071.19;;;18.70;59.32
72157;BME280;60035;52.122;5.406;2023-05-25T10:41:08;103071.09;;;18.73;58.97
72157;BME280;60035;52.122;5.406;2023-05-25T10:43:35;103068.97;;;18.89;57.61
72157;BME280;60035;52.122;5.406;2023-05-25T10:46:04;103073.34;;;18.86;55.74
72157;BME280;60035;52.122;5.406;2023-05-25T10:48:38;103069.19;;;18.80;55.71
72157;BME280;60035;52.122;5.406;2023-05-25T10:51:05;103063.75;;;18.88;55.86
72157;BME280;60035;52.122;5.406;2023-05-25T10:53:35;103064.63;;;18.90;56.01
72157;BME280;60035;52.122;5.406;2023-05-25T10:56:04;103061.16;;;18.88;56.02
72157;BME280;60035;52.122;5.406;2023-05-25T10:58:32;103066.41;;;18.86;55.74
72157;BME280;60035;52.122;5.406;2023-05-25T11:01:10;103063.47;;;19.00;55.24
72157;BME280;60035;52.122;5.406;2023-05-25T11:06:10;103062.03;;;18.88;51.46
72157;BME280;60035;52.122;5.406;2023-05-25T11:09:05;103064.69;;;18.87;51.55
72157;BME280;60035;52.122;5.406;2023-05-25T11:19:47;103065.69;;;19.12;52.15
72157;BME280;60035;52.122;5.406;2023-05-25T11:24:51;103056.19;;;18.81;52.83
72157;BME280;60035;52.122;5.406;2023-05-25T11:27:22;103071.69;;;18.83;52.72
72157;BME280;60035;52.122;5.406;2023-05-25T11:29:50;103067.81;;;18.67;53.47
72157;BME280;60035;52.122;5.406;2023-05-25T11:32:16;103066.16;;;18.65;54.64
72157;BME280;60035;52.122;5.406;2023-05-25T11:34:43;103064.06;;;18.77;55.46
72157;BME280;60035;52.122;5.406;2023-05-25T11:37:17;103059.16;;;19.27;53.85
72157;BME280;60035;52.122;5.406;2023-05-25T11:39:50;103051.81;;;19.13;53.71
72157;BME280;60035;52.122;5.406;2023-05-25T11:42:22;103060.75;;;19.03;53.30
72157;BME280;60035;52.122;5.406;2023-05-25T11:44:49;103058.59;;;18.89;53.85
72157;BME280;60035;52.122;5.406;2023-05-25T11:47:18;103064.41;;;18.97;53.84
72157;BME280;60035;52.122;5.406;2023-05-25T11:49:48;103055.19;;;19.15;53.19
72157;BME280;60035;52.122;5.406;2023-05-25T11:52:16;103049.09;;;19.17;53.39
72157;BME280;60035;52.122;5.406;2023-05-25T11:54:43;103052.78;;;19.38;53.08
72157;BME280;60035;52.122;5.406;2023-05-25T11:57:18;103044.94;;;19.39;52.60
72157;BME280;60035;52.122;5.406;2023-05-25T11:59:50;103048.84;;;19.53;51.91
72157;BME280;60035;52.122;5.406;2023-05-25T12:02:17;103048.28;;;19.43;51.95
72157;BME280;60035;52.122;5.406;2023-05-25T12:04:58;103046.03;;;19.32;51.75
72157;BME280;60035;52.122;5.406;2023-05-25T12:07:28;103048.25;;;19.44;51.74
72157;BME280;60035;52.122;5.406;2023-05-25T12:10:15;103041.09;;;19.51;51.98
72157;BME280;60035;52.122;5.406;2023-05-25T12:12:46;103040.16;;;19.54;50.94
72157;BME280;60035;52.122;5.406;2023-05-25T12:15:21;103033.06;;;19.59;51.00
72157;BME280;60035;52.122;5.406;2023-05-25T12:17:49;103036.22;;;19.69;50.42
72157;BME280;60035;52.122;5.406;2023-05-25T12:20:17;103036.69;;;19.80;49.36
72157;BME280;60035;52.122;5.406;2023-05-25T12:22:44;103034.94;;;20.33;48.57
72157;BME280;60035;52.122;5.406;2023-05-25T12:25:12;103033.19;;;20.57;47.45
72157;BME280;60035;52.122;5.406;2023-05-25T12:27:39;103033.72;;;20.67;47.14
72157;BME280;60035;52.122;5.406;2023-05-25T12:30:08;103031.81;;;20.94;47.58
72157;BME280;60035;52.122;5.406;2023-05-25T12:32:59;103030.03;;;20.96;47.59
72157;BME280;60035;52.122;5.406;2023-05-25T12:35:43;103024.03;;;20.70;47.89
72157;BME280;60035;52.122;5.406;2023-05-25T12:38:16;103032.22;;;20.59;47.63
72157;BME280;60035;52.122;5.406;2023-05-25T12:40:43;103034.88;;;20.34;48.43
72157;BME280;60035;52.122;5.406;2023-05-25T12:43:10;103036.09;;;20.24;49.56
72157;BME280;60035;52.122;5.406;2023-05-25T12:45:42;103041.22;;;20.27;49.96
72157;BME280;60035;52.122;5.406;2023-05-25T12:48:09;103048.53;;;20.16;49.96
72157;BME280;60035;52.122;5.406;2023-05-25T12:50:36;103033.41;;;20.27;49.73
72157;BME280;60035;52.122;5.406;2023-05-25T12:53:03;103037.34;;;20.37;48.62
72157;BME280;60035;52.122;5.406;2023-05-25T12:55:31;103037.50;;;20.58;48.44
72157;BME280;60035;52.122;5.406;2023-05-25T12:58:02;103037.72;;;20.75;47.93
72157;BME280;60035;52.122;5.406;2023-05-25T13:00:37;103023.22;;;21.36;47.29
72157;BME280;60035;52.122;5.406;2023-05-25T13:03:05;103031.06;;;21.58;45.58
72157;BME280;60035;52.122;5.406;2023-05-25T13:05:37;103020.09;;;21.28;45.61
72157;BME280;60035;52.122;5.406;2023-05-25T13:08:04;103030.78;;;20.98;46.52
72157;BME280;60035;52.122;5.406;2023-05-25T13:10:32;103025.94;;;20.89;46.08